Chelsea, Vermont
Current Conditions -  °F | °C
As of 7:51 PM on Sunday 21 Dec 2014 (Local Time) from KMPV Reporting Station
Overcast Overcast  
Wind Chill: 23°   Ceiling: 1400
Heat Index: 23°   Visibility: 8mi
Dew Point: 20°   Wind: 0mph
Humidity: 88%   Direction: NA
Pressure: 30.35"   Gusts: NA
Location:  43.99°N, 72.45°W
Report Text: KMPV 220051Z AUTO 00000KT 8SM OVC014 M05/M07 A3035 RMK AO2 SLP300 T10501067 $
Loading
Personal Weather Stations






























Interactive Weather Map New forecast layout! Learn more

10-Day Weather Forecast

Advertisements
Track Severe Weather on mobile